createdAt,value
2019-03-03T00:01:02.972Z,37.73
2019-03-03T00:06:04.980Z,39.23
2019-03-03T00:11:07.141Z,35.60
2019-03-03T00:16:09.052Z,35.03
2019-03-03T00:21:12.401Z,39.67
2019-03-03T00:26:16.247Z,36.23
2019-03-03T00:31:26.089Z,34.57
2019-03-03T00:36:47.968Z,37.30
2019-03-03T00:42:02.251Z,38.90
2019-03-03T00:47:16.145Z,41.80
2019-03-03T00:52:25.136Z,39.67
2019-03-03T00:57:33.342Z,40.80
2019-03-03T01:02:51.030Z,39.53
2019-03-03T01:08:11.246Z,42.17
2019-03-03T01:13:32.849Z,39.63
2019-03-03T01:18:43.028Z,39.63
2019-03-03T01:24:10.812Z,49.10
2019-03-03T01:29:12.654Z,50.13
2019-03-03T01:34:14.888Z,47.23
2019-03-03T01:39:17.084Z,49.60
2019-03-03T01:44:18.973Z,54.67
2019-03-03T01:49:21.656Z,51.30
2019-03-03T01:54:23.585Z,48.10
2019-03-03T01:59:26.060Z,54.57
2019-03-03T02:04:28.518Z,47.67
2019-03-03T02:09:31.092Z,57.53
2019-03-03T02:14:33.205Z,57.00
2019-03-03T02:19:35.130Z,52.10
2019-03-03T02:24:37.664Z,55.10
2019-03-03T02:29:40.128Z,56.53
2019-03-03T02:34:42.075Z,55.00
2019-03-03T02:39:45.012Z,53.33
2019-03-03T02:44:46.849Z,61.60
2019-03-03T02:49:49.012Z,60.87
2019-03-03T02:54:51.878Z,62.87
2019-03-03T02:59:53.708Z,61.20
2019-03-03T03:04:55.527Z,69.37
2019-03-03T03:10:12.457Z,67.63
2019-03-03T03:15:33.954Z,61.70
2019-03-03T03:20:53.941Z,63.23
2019-03-03T03:26:21.484Z,63.47
2019-03-03T03:31:41.725Z,64.80
2019-03-03T03:37:02.423Z,63.70
2019-03-03T03:42:12.984Z,58.50
2019-03-03T03:47:20.907Z,62.07
2019-03-03T03:52:41.232Z,57.73
2019-03-03T03:57:54.069Z,60.77
2019-03-03T04:03:24.593Z,57.33
2019-03-03T04:08:34.009Z,59.17
2019-03-03T04:14:13.719Z,51.60
2019-03-03T04:19:22.354Z,54.90
2019-03-03T04:24:43.975Z,53.70
2019-03-03T04:29:52.850Z,47.73
2019-03-03T04:35:07.944Z,43.23
2019-03-03T04:40:29.618Z,43.93
2019-03-03T04:45:39.426Z,41.90
2019-03-03T04:50:57.017Z,39.37
2019-03-03T04:56:36.757Z,42.00
2019-03-03T05:01:54.479Z,41.50
2019-03-03T05:07:10.232Z,39.27
2019-03-03T05:12:26.724Z,38.83
2019-03-03T05:17:44.309Z,37.57
2019-03-03T05:22:47.273Z,35.43
2019-03-03T05:27:49.743Z,35.57
2019-03-03T05:32:51.928Z,31.10
2019-03-03T05:37:53.793Z,34.07
2019-03-03T05:42:55.678Z,29.37
2019-03-03T05:47:57.516Z,30.33
2019-03-03T05:52:59.457Z,26.33
2019-03-03T05:58:01.448Z,35.37
2019-03-03T06:03:03.735Z,32.27
2019-03-03T06:08:06.395Z,27.27
2019-03-03T06:13:08.609Z,25.17
2019-03-03T06:18:10.521Z,25.37
2019-03-03T06:23:13.281Z,26.47
2019-03-03T06:28:15.445Z,23.07
2019-03-03T06:33:17.843Z,23.37
2019-03-03T06:38:19.997Z,23.17
2019-03-03T06:43:22.410Z,21.20
2019-03-03T06:48:24.524Z,23.27
2019-03-03T06:53:27.799Z,21.77
2019-03-03T06:58:29.677Z,18.17
2019-03-03T07:03:32.245Z,16.53
2019-03-03T07:08:34.198Z,15.93
2019-03-03T07:13:36.694Z,15.17
2019-03-03T07:18:38.808Z,14.03
2019-03-03T07:23:41.556Z,12.03
2019-03-03T07:28:43.756Z,12.40
2019-03-03T07:33:50.752Z,13.00
2019-03-03T07:38:53.627Z,10.63
2019-03-03T07:43:55.620Z,11.23
2019-03-03T07:48:57.548Z,10.97
2019-03-03T07:53:59.875Z,10.60
2019-03-03T07:59:01.808Z,10.03
2019-03-03T08:04:03.888Z,10.43
2019-03-03T08:09:07.572Z,12.90
2019-03-03T08:14:10.347Z,7.20
2019-03-03T08:19:12.530Z,10.23
2019-03-03T08:24:16.128Z,8.73
2019-03-03T08:29:18.438Z,8.47
2019-03-03T08:34:21.940Z,9.90
2019-03-03T08:39:23.744Z,9.27
2019-03-03T08:44:47.537Z,7.70
2019-03-03T08:50:00.299Z,10.83
2019-03-03T08:55:27.445Z,10.03
2019-03-03T09:00:47.656Z,8.63
2019-03-03T09:06:04.760Z,9.83
2019-03-03T09:11:22.212Z,11.97
2019-03-03T09:16:50.026Z,9.47
2019-03-03T09:22:23.417Z,9.07
2019-03-03T09:27:31.457Z,12.63
2019-03-03T09:32:53.794Z,10.30
2019-03-03T09:38:18.703Z,12.80
2019-03-03T09:43:37.246Z,14.27
2019-03-03T09:48:59.058Z,11.90
2019-03-03T09:54:19.609Z,15.33
2019-03-03T09:59:47.041Z,8.60
2019-03-03T10:04:55.739Z,11.33
2019-03-03T10:10:22.072Z,11.50
2019-03-03T10:15:29.634Z,9.13
2019-03-03T10:20:42.453Z,11.73
2019-03-03T10:26:16.657Z,12.60
2019-03-03T10:31:28.065Z,10.13
2019-03-03T10:36:38.024Z,12.77
2019-03-03T10:42:03.273Z,11.40
2019-03-03T10:47:25.185Z,10.80
2019-03-03T10:52:43.172Z,13.73
2019-03-03T10:58:04.701Z,12.40
2019-03-03T11:03:30.101Z,10.90
2019-03-03T11:09:10.213Z,9.60
2019-03-03T11:14:50.996Z,12.33
2019-03-03T11:20:12.269Z,10.83
2019-03-03T11:25:33.083Z,12.53
2019-03-03T11:30:54.726Z,12.43
2019-03-03T11:36:11.709Z,11.73
2019-03-03T11:41:28.119Z,12.43
2019-03-03T11:46:41.381Z,14.07
2019-03-03T11:52:11.965Z,11.27
2019-03-03T11:57:22.137Z,10.83
2019-03-03T12:02:56.242Z,11.23
2019-03-03T12:08:06.821Z,12.00
2019-03-03T12:13:21.692Z,15.87
2019-03-03T12:18:42.445Z,12.80
2019-03-03T12:24:07.887Z,9.73
2019-03-03T12:29:19.697Z,12.83
2019-03-03T12:34:47.853Z,12.97
2019-03-03T12:40:08.656Z,11.60
2019-03-03T12:45:39.723Z,10.37
2019-03-03T12:51:08.356Z,12.97
2019-03-03T12:56:38.984Z,12.60
2019-03-03T13:01:48.781Z,13.37
2019-03-03T13:07:01.472Z,12.27
2019-03-03T13:12:23.356Z,11.37
2019-03-03T13:17:48.142Z,12.13
2019-03-03T13:23:21.936Z,12.00
2019-03-03T13:28:50.389Z,11.03
2019-03-03T13:34:12.632Z,14.03
2019-03-03T13:39:37.341Z,12.20
2019-03-03T13:44:39.811Z,12.70
2019-03-03T13:49:41.909Z,11.33
2019-03-03T13:54:44.201Z,12.70
2019-03-03T13:59:46.588Z,14.30
2019-03-03T14:04:48.521Z,14.57
2019-03-03T14:09:51.255Z,12.57
2019-03-03T14:14:53.164Z,11.93
2019-03-03T14:19:55.364Z,12.57
2019-03-03T14:24:57.213Z,10.60
2019-03-03T14:29:59.467Z,8.03
2019-03-03T14:35:02.207Z,11.00
2019-03-03T14:40:05.266Z,9.40
2019-03-03T14:45:09.376Z,13.93
2019-03-03T14:50:12.736Z,12.57
2019-03-03T14:55:34.240Z,10.23
2019-03-03T15:00:36.769Z,11.43
2019-03-03T15:05:39.028Z,10.17
2019-03-03T15:10:40.999Z,13.37
2019-03-03T15:15:42.896Z,9.13
2019-03-03T15:20:45.209Z,16.73
2019-03-03T15:25:47.452Z,12.77
2019-03-03T15:30:50.852Z,13.97
2019-03-03T15:35:52.726Z,22.83
2019-03-03T15:40:55.036Z,18.93
2019-03-03T15:45:58.477Z,16.73
2019-03-03T15:51:00.955Z,11.63
2019-03-03T15:56:03.128Z,16.93
2019-03-03T16:01:12.380Z,14.87
2019-03-03T16:06:15.070Z,16.47
2019-03-03T16:11:17.677Z,17.30
2019-03-03T16:16:19.859Z,14.93
2019-03-03T16:21:21.767Z,16.27
2019-03-03T16:26:24.176Z,16.13
2019-03-03T16:31:26.095Z,15.43
2019-03-03T16:36:29.025Z,22.00
2019-03-03T16:41:30.928Z,14.63
2019-03-03T16:46:32.891Z,16.13
2019-03-03T16:51:34.897Z,15.30
2019-03-03T16:56:36.815Z,19.93
2019-03-03T17:01:39.577Z,13.50
2019-03-03T17:06:41.552Z,17.20
2019-03-03T17:11:43.679Z,14.07
2019-03-03T17:16:46.189Z,16.43
2019-03-03T17:21:48.802Z,14.27
2019-03-03T17:26:51.303Z,19.03
2019-03-03T17:31:54.053Z,18.97
2019-03-03T17:36:55.895Z,19.23
2019-03-03T17:41:58.441Z,13.57
2019-03-03T17:47:01.090Z,12.93
2019-03-03T17:52:03.546Z,19.47
2019-03-03T17:57:05.438Z,18.13
2019-03-03T18:02:07.354Z,19.23
2019-03-03T18:07:09.177Z,12.40
2019-03-03T18:12:11.947Z,14.63
2019-03-03T18:17:14.257Z,12.90
2019-03-03T18:22:16.604Z,12.20
2019-03-03T18:27:18.852Z,14.30
2019-03-03T18:32:21.416Z,12.53
2019-03-03T18:37:24.193Z,12.37
2019-03-03T18:42:26.163Z,13.97
2019-03-03T18:47:29.297Z,14.73
2019-03-03T18:52:31.772Z,15.40
2019-03-03T18:57:34.186Z,11.60
2019-03-03T19:02:37.058Z,11.53
2019-03-03T19:07:39.593Z,13.40
2019-03-03T19:12:41.836Z,12.83
2019-03-03T19:17:44.344Z,13.80
2019-03-03T19:22:46.524Z,17.73
2019-03-03T19:27:49.425Z,13.00
2019-03-03T19:33:01.455Z,13.73
2019-03-03T19:38:03.704Z,14.80
2019-03-03T19:43:05.750Z,15.77
2019-03-03T19:48:08.586Z,10.73
2019-03-03T19:53:10.765Z,11.20
2019-03-03T19:58:12.945Z,12.40
2019-03-03T20:03:15.326Z,13.27
2019-03-03T20:08:17.161Z,7.13
2019-03-03T20:13:19.622Z,12.40
2019-03-03T20:18:22.054Z,9.93
2019-03-03T20:23:23.988Z,11.03
2019-03-03T20:28:26.644Z,7.33
2019-03-03T20:33:28.967Z,10.00
2019-03-03T20:38:30.919Z,10.03
2019-03-03T20:43:32.889Z,8.23
2019-03-03T20:48:34.992Z,7.97
2019-03-03T20:53:36.860Z,8.73
2019-03-03T20:58:39.259Z,8.37
2019-03-03T21:03:41.424Z,7.93
2019-03-03T21:08:43.249Z,8.10
2019-03-03T21:13:45.345Z,9.07
2019-03-03T21:18:47.603Z,8.07
2019-03-03T21:23:50.045Z,8.53
2019-03-03T21:28:52.615Z,13.23
2019-03-03T21:33:54.899Z,9.13
2019-03-03T21:38:57.186Z,8.57
2019-03-03T21:43:59.985Z,9.07
2019-03-03T21:49:01.945Z,6.73
2019-03-03T21:54:04.445Z,7.33
2019-03-03T21:59:06.830Z,9.73
2019-03-03T22:04:09.420Z,8.93
2019-03-03T22:09:12.117Z,11.17
2019-03-03T22:14:15.960Z,9.50
2019-03-03T22:19:18.263Z,10.83
2019-03-03T22:24:20.520Z,9.00
2019-03-03T22:29:22.350Z,9.57
2019-03-03T22:34:24.804Z,7.57
2019-03-03T22:39:26.830Z,10.87
2019-03-03T22:44:28.744Z,8.63
2019-03-03T22:49:30.757Z,9.13
2019-03-03T22:54:32.668Z,10.67
2019-03-03T22:59:35.109Z,10.33
2019-03-03T23:04:54.681Z,13.73
2019-03-03T23:10:37.157Z,11.90
2019-03-03T23:16:26.317Z,9.60
2019-03-03T23:22:26.371Z,9.70
2019-03-03T23:27:29.061Z,9.70
2019-03-03T23:32:31.226Z,8.03
2019-03-03T23:37:33.400Z,8.60
2019-03-03T23:42:35.303Z,8.30
2019-03-03T23:47:37.133Z,11.43
2019-03-03T23:52:39.073Z,11.30
2019-03-03T23:57:41.876Z,8.17
